sensor_id;sensor_type;location;lat;lon;timestamp;P1;durP1;ratioP1;P2;durP2;ratioP2
27383;SDS011;14851;51.166;4.760;2023-05-07T00:01:13;12.23;;;8.60;;
27383;SDS011;14851;51.166;4.760;2023-05-07T00:03:39;10.23;;;8.43;;
27383;SDS011;14851;51.166;4.760;2023-05-07T00:06:05;10.80;;;8.50;;
27383;SDS011;14851;51.166;4.760;2023-05-07T00:08:31;8.88;;;7.97;;
27383;SDS011;14851;51.166;4.760;2023-05-07T00:10:57;9.80;;;8.80;;
27383;SDS011;14851;51.166;4.760;2023-05-07T00:13:23;10.45;;;8.77;;
27383;SDS011;14851;51.166;4.760;2023-05-07T00:15:49;9.13;;;8.27;;
27383;SDS011;14851;51.166;4.760;2023-05-07T00:18:15;12.40;;;8.68;;
27383;SDS011;14851;51.166;4.760;2023-05-07T00:20:41;10.73;;;9.20;;
27383;SDS011;14851;51.166;4.760;2023-05-07T00:23:07;9.35;;;7.57;;
27383;SDS011;14851;51.166;4.760;2023-05-07T00:25:32;13.20;;;8.80;;
27383;SDS011;14851;51.166;4.760;2023-05-07T00:27:58;12.90;;;8.43;;
27383;SDS011;14851;51.166;4.760;2023-05-07T00:30:28;9.82;;;8.77;;
27383;SDS011;14851;51.166;4.760;2023-05-07T00:32:54;11.82;;;8.75;;
27383;SDS011;14851;51.166;4.760;2023-05-07T00:35:20;9.60;;;8.60;;
27383;SDS011;14851;51.166;4.760;2023-05-07T00:37:48;10.18;;;9.13;;
27383;SDS011;14851;51.166;4.760;2023-05-07T00:40:15;11.05;;;9.95;;
27383;SDS011;14851;51.166;4.760;2023-05-07T00:42:43;12.63;;;9.80;;
27383;SDS011;14851;51.166;4.760;2023-05-07T00:45:15;11.50;;;10.20;;
27383;SDS011;14851;51.166;4.760;2023-05-07T00:47:42;12.02;;;10.45;;
27383;SDS011;14851;51.166;4.760;2023-05-07T00:50:11;11.98;;;10.88;;
27383;SDS011;14851;51.166;4.760;2023-05-07T00:52:37;11.60;;;9.45;;
27383;SDS011;14851;51.166;4.760;2023-05-07T00:55:04;14.90;;;10.32;;
27383;SDS011;14851;51.166;4.760;2023-05-07T00:57:37;12.13;;;9.45;;
27383;SDS011;14851;51.166;4.760;2023-05-07T01:00:08;14.02;;;9.70;;
27383;SDS011;14851;51.166;4.760;2023-05-07T01:02:35;16.00;;;9.25;;
27383;SDS011;14851;51.166;4.760;2023-05-07T01:05:01;12.90;;;9.32;;
27383;SDS011;14851;51.166;4.760;2023-05-07T01:07:31;10.73;;;9.68;;
27383;SDS011;14851;51.166;4.760;2023-05-07T01:09:58;13.48;;;10.15;;
27383;SDS011;14851;51.166;4.760;2023-05-07T01:12:28;14.18;;;9.82;;
27383;SDS011;14851;51.166;4.760;2023-05-07T01:14:57;11.70;;;9.38;;
27383;SDS011;14851;51.166;4.760;2023-05-07T01:17:23;11.65;;;8.80;;
27383;SDS011;14851;51.166;4.760;2023-05-07T01:19:50;11.35;;;9.45;;
27383;SDS011;14851;51.166;4.760;2023-05-07T01:22:29;10.30;;;9.13;;
27383;SDS011;14851;51.166;4.760;2023-05-07T01:25:06;9.18;;;8.30;;
27383;SDS011;14851;51.166;4.760;2023-05-07T01:27:34;10.82;;;8.95;;
27383;SDS011;14851;51.166;4.760;2023-05-07T01:30:02;11.93;;;9.40;;
27383;SDS011;14851;51.166;4.760;2023-05-07T01:32:38;12.77;;;9.77;;
27383;SDS011;14851;51.166;4.760;2023-05-07T01:35:10;11.38;;;10.20;;
27383;SDS011;14851;51.166;4.760;2023-05-07T01:37:40;10.15;;;9.10;;
27383;SDS011;14851;51.166;4.760;2023-05-07T01:40:07;11.70;;;9.55;;
27383;SDS011;14851;51.166;4.760;2023-05-07T01:42:36;11.13;;;9.07;;
27383;SDS011;14851;51.166;4.760;2023-05-07T01:45:02;13.95;;;9.20;;
27383;SDS011;14851;51.166;4.760;2023-05-07T01:47:31;12.27;;;9.82;;
27383;SDS011;14851;51.166;4.760;2023-05-07T01:50:01;13.73;;;9.87;;
27383;SDS011;14851;51.166;4.760;2023-05-07T01:52:29;13.52;;;9.13;;
27383;SDS011;14851;51.166;4.760;2023-05-07T01:54:58;14.00;;;9.65;;
27383;SDS011;14851;51.166;4.760;2023-05-07T01:57:24;10.35;;;9.30;;
27383;SDS011;14851;51.166;4.760;2023-05-07T01:59:50;9.80;;;8.80;;
27383;SDS011;14851;51.166;4.760;2023-05-07T02:02:17;12.07;;;9.10;;
27383;SDS011;14851;51.166;4.760;2023-05-07T02:04:45;18.60;;;9.60;;
27383;SDS011;14851;51.166;4.760;2023-05-07T02:07:12;12.00;;;9.15;;
27383;SDS011;14851;51.166;4.760;2023-05-07T02:09:38;9.77;;;8.88;;
27383;SDS011;14851;51.166;4.760;2023-05-07T02:12:04;10.35;;;7.45;;
27383;SDS011;14851;51.166;4.760;2023-05-07T02:14:30;10.15;;;9.13;;
27383;SDS011;14851;51.166;4.760;2023-05-07T02:16:56;11.43;;;9.40;;
27383;SDS011;14851;51.166;4.760;2023-05-07T02:19:22;11.38;;;9.82;;
27383;SDS011;14851;51.166;4.760;2023-05-07T02:21:50;12.80;;;9.45;;
27383;SDS011;14851;51.166;4.760;2023-05-07T02:24:16;11.65;;;9.25;;
27383;SDS011;14851;51.166;4.760;2023-05-07T02:26:42;12.05;;;9.43;;
27383;SDS011;14851;51.166;4.760;2023-05-07T02:29:08;12.40;;;9.57;;
27383;SDS011;14851;51.166;4.760;2023-05-07T02:31:36;11.55;;;9.60;;
27383;SDS011;14851;51.166;4.760;2023-05-07T02:34:02;10.98;;;9.70;;
27383;SDS011;14851;51.166;4.760;2023-05-07T02:36:27;10.55;;;9.55;;
27383;SDS011;14851;51.166;4.760;2023-05-07T02:39:00;11.50;;;10.25;;
27383;SDS011;14851;51.166;4.760;2023-05-07T02:41:27;11.20;;;10.07;;
27383;SDS011;14851;51.166;4.760;2023-05-07T02:43:53;11.35;;;10.18;;
27383;SDS011;14851;51.166;4.760;2023-05-07T02:46:20;10.30;;;9.23;;
27383;SDS011;14851;51.166;4.760;2023-05-07T02:48:51;10.95;;;9.85;;
27383;SDS011;14851;51.166;4.760;2023-05-07T02:51:20;13.13;;;10.90;;
27383;SDS011;14851;51.166;4.760;2023-05-07T02:53:48;13.30;;;9.57;;
27383;SDS011;14851;51.166;4.760;2023-05-07T02:56:14;9.73;;;8.82;;
27383;SDS011;14851;51.166;4.760;2023-05-07T02:58:40;13.70;;;9.60;;
27383;SDS011;14851;51.166;4.760;2023-05-07T03:01:08;10.60;;;9.15;;
27383;SDS011;14851;51.166;4.760;2023-05-07T03:03:42;11.63;;;8.30;;
27383;SDS011;14851;51.166;4.760;2023-05-07T03:06:09;10.27;;;9.10;;
27383;SDS011;14851;51.166;4.760;2023-05-07T03:08:35;12.65;;;9.15;;
27383;SDS011;14851;51.166;4.760;2023-05-07T03:11:02;12.15;;;9.35;;
27383;SDS011;14851;51.166;4.760;2023-05-07T03:13:28;10.82;;;9.73;;
27383;SDS011;14851;51.166;4.760;2023-05-07T03:15:56;10.73;;;9.70;;
27383;SDS011;14851;51.166;4.760;2023-05-07T03:18:21;10.05;;;9.05;;
27383;SDS011;14851;51.166;4.760;2023-05-07T03:20:47;10.48;;;9.50;;
27383;SDS011;14851;51.166;4.760;2023-05-07T03:23:15;10.27;;;9.38;;
27383;SDS011;14851;51.166;4.760;2023-05-07T03:25:41;10.45;;;9.20;;
27383;SDS011;14851;51.166;4.760;2023-05-07T03:28:09;10.57;;;9.05;;
27383;SDS011;14851;51.166;4.760;2023-05-07T03:30:40;10.13;;;9.13;;
27383;SDS011;14851;51.166;4.760;2023-05-07T03:33:06;11.23;;;9.25;;
27383;SDS011;14851;51.166;4.760;2023-05-07T03:35:37;10.77;;;9.75;;
27383;SDS011;14851;51.166;4.760;2023-05-07T03:38:04;10.95;;;9.95;;
27383;SDS011;14851;51.166;4.760;2023-05-07T03:40:33;12.60;;;9.88;;
27383;SDS011;14851;51.166;4.760;2023-05-07T03:43:00;12.48;;;11.18;;
27383;SDS011;14851;51.166;4.760;2023-05-07T03:45:27;11.55;;;10.15;;
27383;SDS011;14851;51.166;4.760;2023-05-07T03:48:06;12.15;;;10.68;;
27383;SDS011;14851;51.166;4.760;2023-05-07T03:50:32;12.40;;;10.90;;
27383;SDS011;14851;51.166;4.760;2023-05-07T03:52:58;11.43;;;10.23;;
27383;SDS011;14851;51.166;4.760;2023-05-07T03:55:24;14.18;;;11.50;;
27383;SDS011;14851;51.166;4.760;2023-05-07T03:57:55;12.25;;;10.73;;
27383;SDS011;14851;51.166;4.760;2023-05-07T04:00:23;12.60;;;10.82;;
27383;SDS011;14851;51.166;4.760;2023-05-07T04:02:48;12.40;;;10.93;;
27383;SDS011;14851;51.166;4.760;2023-05-07T04:05:23;12.63;;;11.45;;
27383;SDS011;14851;51.166;4.760;2023-05-07T04:07:54;11.55;;;10.45;;
27383;SDS011;14851;51.166;4.760;2023-05-07T04:10:26;12.60;;;11.32;;
27383;SDS011;14851;51.166;4.760;2023-05-07T04:12:55;13.65;;;11.82;;
27383;SDS011;14851;51.166;4.760;2023-05-07T04:15:24;13.52;;;12.13;;
27383;SDS011;14851;51.166;4.760;2023-05-07T04:17:50;13.63;;;12.32;;
27383;SDS011;14851;51.166;4.760;2023-05-07T04:20:18;12.93;;;11.73;;
27383;SDS011;14851;51.166;4.760;2023-05-07T04:22:49;14.98;;;12.98;;
27383;SDS011;14851;51.166;4.760;2023-05-07T04:25:15;14.15;;;12.75;;
27383;SDS011;14851;51.166;4.760;2023-05-07T04:27:42;14.68;;;13.32;;
27383;SDS011;14851;51.166;4.760;2023-05-07T04:30:08;14.98;;;13.57;;
27383;SDS011;14851;51.166;4.760;2023-05-07T04:32:37;13.88;;;12.48;;
27383;SDS011;14851;51.166;4.760;2023-05-07T04:35:04;13.60;;;12.30;;
27383;SDS011;14851;51.166;4.760;2023-05-07T04:37:31;13.63;;;12.27;;
27383;SDS011;14851;51.166;4.760;2023-05-07T04:39:58;12.73;;;11.52;;
27383;SDS011;14851;51.166;4.760;2023-05-07T04:42:26;14.95;;;12.27;;
27383;SDS011;14851;51.166;4.760;2023-05-07T04:44:52;13.50;;;12.25;;
27383;SDS011;14851;51.166;4.760;2023-05-07T04:47:20;13.27;;;11.93;;
27383;SDS011;14851;51.166;4.760;2023-05-07T04:49:46;14.50;;;11.57;;
27383;SDS011;14851;51.166;4.760;2023-05-07T04:52:14;12.43;;;11.32;;
27383;SDS011;14851;51.166;4.760;2023-05-07T04:54:40;13.98;;;12.68;;
27383;SDS011;14851;51.166;4.760;2023-05-07T04:57:07;12.00;;;10.80;;
27383;SDS011;14851;51.166;4.760;2023-05-07T04:59:33;14.43;;;12.93;;
27383;SDS011;14851;51.166;4.760;2023-05-07T05:01:59;14.10;;;12.80;;
27383;SDS011;14851;51.166;4.760;2023-05-07T05:04:26;14.27;;;12.98;;
27383;SDS011;14851;51.166;4.760;2023-05-07T05:06:55;14.10;;;12.80;;
27383;SDS011;14851;51.166;4.760;2023-05-07T05:09:21;14.32;;;12.95;;
27383;SDS011;14851;51.166;4.760;2023-05-07T05:11:50;14.00;;;12.23;;
27383;SDS011;14851;51.166;4.760;2023-05-07T05:14:16;18.52;;;12.93;;
27383;SDS011;14851;51.166;4.760;2023-05-07T05:16:42;14.75;;;12.88;;
27383;SDS011;14851;51.166;4.760;2023-05-07T05:19:09;14.98;;;12.45;;
27383;SDS011;14851;51.166;4.760;2023-05-07T05:21:37;14.48;;;12.95;;
27383;SDS011;14851;51.166;4.760;2023-05-07T05:24:08;14.00;;;12.70;;
27383;SDS011;14851;51.166;4.760;2023-05-07T05:26:34;11.20;;;10.15;;
27383;SDS011;14851;51.166;4.760;2023-05-07T05:29:01;14.20;;;12.80;;
27383;SDS011;14851;51.166;4.760;2023-05-07T05:31:28;15.23;;;13.07;;
27383;SDS011;14851;51.166;4.760;2023-05-07T05:33:54;15.27;;;13.77;;
27383;SDS011;14851;51.166;4.760;2023-05-07T05:36:20;15.13;;;13.63;;
27383;SDS011;14851;51.166;4.760;2023-05-07T05:38:49;15.45;;;13.93;;
27383;SDS011;14851;51.166;4.760;2023-05-07T05:41:17;15.13;;;13.60;;
27383;SDS011;14851;51.166;4.760;2023-05-07T05:43:43;16.90;;;14.38;;
27383;SDS011;14851;51.166;4.760;2023-05-07T05:46:09;18.55;;;15.15;;
27383;SDS011;14851;51.166;4.760;2023-05-07T05:48:37;12.52;;;11.23;;
27383;SDS011;14851;51.166;4.760;2023-05-07T05:51:04;12.55;;;11.35;;
27383;SDS011;14851;51.166;4.760;2023-05-07T05:53:30;16.10;;;14.48;;
27383;SDS011;14851;51.166;4.760;2023-05-07T05:55:59;16.95;;;15.35;;
27383;SDS011;14851;51.166;4.760;2023-05-07T05:58:29;18.98;;;14.95;;
27383;SDS011;14851;51.166;4.760;2023-05-07T06:03:30;16.58;;;15.00;;
27383;SDS011;14851;51.166;4.760;2023-05-07T06:06:04;16.45;;;14.73;;
27383;SDS011;14851;51.166;4.760;2023-05-07T06:08:30;17.73;;;15.35;;
27383;SDS011;14851;51.166;4.760;2023-05-07T06:10:57;16.60;;;15.00;;
27383;SDS011;14851;51.166;4.760;2023-05-07T06:13:24;16.90;;;15.23;;
27383;SDS011;14851;51.166;4.760;2023-05-07T06:15:52;13.65;;;12.32;;
27383;SDS011;14851;51.166;4.760;2023-05-07T06:18:19;14.30;;;12.85;;
27383;SDS011;14851;51.166;4.760;2023-05-07T06:20:45;16.60;;;14.88;;
27383;SDS011;14851;51.166;4.760;2023-05-07T06:23:18;17.65;;;13.23;;
27383;SDS011;14851;51.166;4.760;2023-05-07T06:25:50;14.55;;;13.25;;
27383;SDS011;14851;51.166;4.760;2023-05-07T06:28:18;17.20;;;14.15;;
27383;SDS011;14851;51.166;4.760;2023-05-07T06:30:45;16.42;;;14.77;;
27383;SDS011;14851;51.166;4.760;2023-05-07T06:33:11;17.85;;;15.15;;
27383;SDS011;14851;51.166;4.760;2023-05-07T06:35:37;17.40;;;15.63;;
27383;SDS011;14851;51.166;4.760;2023-05-07T06:38:08;19.58;;;15.85;;
27383;SDS011;14851;51.166;4.760;2023-05-07T06:40:39;22.38;;;17.55;;
27383;SDS011;14851;51.166;4.760;2023-05-07T06:43:05;18.95;;;16.25;;
27383;SDS011;14851;51.166;4.760;2023-05-07T06:45:46;17.30;;;15.40;;
27383;SDS011;14851;51.166;4.760;2023-05-07T06:48:13;19.80;;;15.52;;
27383;SDS011;14851;51.166;4.760;2023-05-07T06:51:01;17.13;;;15.43;;
27383;SDS011;14851;51.166;4.760;2023-05-07T06:53:28;16.77;;;14.93;;
27383;SDS011;14851;51.166;4.760;2023-05-07T06:55:59;17.92;;;15.85;;
27383;SDS011;14851;51.166;4.760;2023-05-07T06:58:27;18.80;;;16.75;;
27383;SDS011;14851;51.166;4.760;2023-05-07T07:00:59;17.90;;;16.10;;
27383;SDS011;14851;51.166;4.760;2023-05-07T07:03:28;17.75;;;15.95;;
27383;SDS011;14851;51.166;4.760;2023-05-07T07:05:57;16.80;;;15.02;;
27383;SDS011;14851;51.166;4.760;2023-05-07T07:08:23;17.92;;;15.73;;
27383;SDS011;14851;51.166;4.760;2023-05-07T07:10:50;18.63;;;16.67;;
27383;SDS011;14851;51.166;4.760;2023-05-07T07:13:16;18.83;;;16.83;;
27383;SDS011;14851;51.166;4.760;2023-05-07T07:15:42;17.02;;;14.23;;
27383;SDS011;14851;51.166;4.760;2023-05-07T07:18:13;16.05;;;13.88;;
27383;SDS011;14851;51.166;4.760;2023-05-07T07:20:41;15.57;;;13.93;;
27383;SDS011;14851;51.166;4.760;2023-05-07T07:23:09;14.68;;;12.98;;
27383;SDS011;14851;51.166;4.760;2023-05-07T07:25:35;19.88;;;14.77;;
27383;SDS011;14851;51.166;4.760;2023-05-07T07:28:02;19.33;;;16.33;;
27383;SDS011;14851;51.166;4.760;2023-05-07T07:30:28;18.75;;;16.80;;
27383;SDS011;14851;51.166;4.760;2023-05-07T07:32:54;16.40;;;14.65;;
27383;SDS011;14851;51.166;4.760;2023-05-07T07:35:25;16.02;;;14.38;;
27383;SDS011;14851;51.166;4.760;2023-05-07T07:37:57;15.40;;;14.00;;
27383;SDS011;14851;51.166;4.760;2023-05-07T07:40:23;17.80;;;15.90;;
27383;SDS011;14851;51.166;4.760;2023-05-07T07:42:50;18.02;;;16.13;;
27383;SDS011;14851;51.166;4.760;2023-05-07T07:45:17;18.23;;;16.33;;
27383;SDS011;14851;51.166;4.760;2023-05-07T07:47:46;16.98;;;15.27;;
27383;SDS011;14851;51.166;4.760;2023-05-07T07:50:12;18.92;;;16.98;;
27383;SDS011;14851;51.166;4.760;2023-05-07T07:52:38;19.90;;;18.10;;
27383;SDS011;14851;51.166;4.760;2023-05-07T07:55:08;21.08;;;18.75;;
27383;SDS011;14851;51.166;4.760;2023-05-07T07:57:36;21.33;;;19.17;;
27383;SDS011;14851;51.166;4.760;2023-05-07T08:00:04;19.35;;;17.45;;
27383;SDS011;14851;51.166;4.760;2023-05-07T08:02:41;20.25;;;18.10;;
27383;SDS011;14851;51.166;4.760;2023-05-07T08:05:09;20.50;;;18.25;;
27383;SDS011;14851;51.166;4.760;2023-05-07T08:07:35;20.63;;;18.45;;
27383;SDS011;14851;51.166;4.760;2023-05-07T08:10:01;20.65;;;18.45;;
27383;SDS011;14851;51.166;4.760;2023-05-07T08:12:32;20.10;;;18.20;;
27383;SDS011;14851;51.166;4.760;2023-05-07T08:14:58;22.15;;;19.20;;
27383;SDS011;14851;51.166;4.760;2023-05-07T08:17:24;20.27;;;18.38;;
27383;SDS011;14851;51.166;4.760;2023-05-07T08:19:55;20.80;;;18.70;;
27383;SDS011;14851;51.166;4.760;2023-05-07T08:22:21;19.08;;;17.17;;
27383;SDS011;14851;51.166;4.760;2023-05-07T08:24:49;19.17;;;17.35;;
27383;SDS011;14851;51.166;4.760;2023-05-07T08:27:14;19.63;;;17.23;;
27383;SDS011;14851;51.166;4.760;2023-05-07T08:29:41;20.05;;;18.08;;
27383;SDS011;14851;51.166;4.760;2023-05-07T08:32:07;19.08;;;17.27;;
27383;SDS011;14851;51.166;4.760;2023-05-07T08:34:35;20.38;;;18.15;;
27383;SDS011;14851;51.166;4.760;2023-05-07T08:37:04;20.73;;;17.65;;
27383;SDS011;14851;51.166;4.760;2023-05-07T08:39:31;18.80;;;16.90;;
27383;SDS011;14851;51.166;4.760;2023-05-07T08:41:57;19.27;;;17.23;;
27383;SDS011;14851;51.166;4.760;2023-05-07T08:44:33;19.88;;;17.75;;
27383;SDS011;14851;51.166;4.760;2023-05-07T08:47:04;18.63;;;16.63;;
27383;SDS011;14851;51.166;4.760;2023-05-07T08:49:35;18.30;;;16.42;;
27383;SDS011;14851;51.166;4.760;2023-05-07T08:52:02;19.98;;;17.92;;
27383;SDS011;14851;51.166;4.760;2023-05-07T08:54:31;19.98;;;18.00;;
27383;SDS011;14851;51.166;4.760;2023-05-07T08:56:58;19.83;;;17.63;;
27383;SDS011;14851;51.166;4.760;2023-05-07T08:59:25;19.38;;;17.17;;
27383;SDS011;14851;51.166;4.760;2023-05-07T09:01:51;19.77;;;16.52;;
27383;SDS011;14851;51.166;4.760;2023-05-07T09:04:17;19.10;;;17.20;;
27383;SDS011;14851;51.166;4.760;2023-05-07T09:06:43;21.48;;;18.02;;
27383;SDS011;14851;51.166;4.760;2023-05-07T09:09:14;20.48;;;17.85;;
27383;SDS011;14851;51.166;4.760;2023-05-07T09:11:42;19.52;;;17.63;;
27383;SDS011;14851;51.166;4.760;2023-05-07T09:14:10;20.65;;;17.48;;
27383;SDS011;14851;51.166;4.760;2023-05-07T09:16:39;19.88;;;16.48;;
27383;SDS011;14851;51.166;4.760;2023-05-07T09:19:08;19.45;;;17.30;;
27383;SDS011;14851;51.166;4.760;2023-05-07T09:21:34;21.40;;;18.48;;
27383;SDS011;14851;51.166;4.760;2023-05-07T09:24:04;19.57;;;16.80;;
27383;SDS011;14851;51.166;4.760;2023-05-07T09:26:37;20.52;;;16.95;;
27383;SDS011;14851;51.166;4.760;2023-05-07T09:29:04;20.75;;;18.10;;
27383;SDS011;14851;51.166;4.760;2023-05-07T09:31:31;22.50;;;18.35;;
27383;SDS011;14851;51.166;4.760;2023-05-07T09:33:58;20.08;;;17.77;;
27383;SDS011;14851;51.166;4.760;2023-05-07T09:36:27;20.07;;;17.93;;
27383;SDS011;14851;51.166;4.760;2023-05-07T09:38:59;19.63;;;17.67;;
27383;SDS011;14851;51.166;4.760;2023-05-07T09:41:25;22.02;;;17.08;;
27383;SDS011;14851;51.166;4.760;2023-05-07T09:43:59;20.30;;;16.83;;
27383;SDS011;14851;51.166;4.760;2023-05-07T09:46:32;20.20;;;17.17;;
27383;SDS011;14851;51.166;4.760;2023-05-07T09:49:06;19.27;;;17.08;;
27383;SDS011;14851;51.166;4.760;2023-05-07T09:51:39;19.52;;;17.45;;
27383;SDS011;14851;51.166;4.760;2023-05-07T09:54:08;19.90;;;17.83;;
27383;SDS011;14851;51.166;4.760;2023-05-07T09:56:42;20.60;;;18.42;;
27383;SDS011;14851;51.166;4.760;2023-05-07T09:59:12;25.15;;;18.50;;
27383;SDS011;14851;51.166;4.760;2023-05-07T10:01:43;23.70;;;19.25;;
27383;SDS011;14851;51.166;4.760;2023-05-07T10:04:12;21.13;;;18.75;;
27383;SDS011;14851;51.166;4.760;2023-05-07T10:06:40;20.35;;;18.25;;
27383;SDS011;14851;51.166;4.760;2023-05-07T10:09:13;22.80;;;18.80;;
27383;SDS011;14851;51.166;4.760;2023-05-07T10:11:44;20.83;;;17.65;;
27383;SDS011;14851;51.166;4.760;2023-05-07T10:14:13;22.33;;;19.17;;
27383;SDS011;14851;51.166;4.760;2023-05-07T10:16:41;22.58;;;19.25;;
27383;SDS011;14851;51.166;4.760;2023-05-07T10:19:11;23.25;;;19.23;;
27383;SDS011;14851;51.166;4.760;2023-05-07T10:24:19;23.00;;;18.77;;
27383;SDS011;14851;51.166;4.760;2023-05-07T10:26:50;23.90;;;19.00;;
27383;SDS011;14851;51.166;4.760;2023-05-07T10:34:40;20.08;;;17.98;;
27383;SDS011;14851;51.166;4.760;2023-05-07T10:37:10;21.40;;;17.80;;
27383;SDS011;14851;51.166;4.760;2023-05-07T10:39:37;22.25;;;18.17;;
27383;SDS011;14851;51.166;4.760;2023-05-07T10:42:13;20.65;;;18.23;;
27383;SDS011;14851;51.166;4.760;2023-05-07T10:44:45;21.20;;;18.13;;
27383;SDS011;14851;51.166;4.760;2023-05-07T10:47:19;21.27;;;19.13;;
27383;SDS011;14851;51.166;4.760;2023-05-07T10:52:22;21.98;;;18.40;;
27383;SDS011;14851;51.166;4.760;2023-05-07T10:55:28;26.73;;;16.88;;
27383;SDS011;14851;51.166;4.760;2023-05-07T10:58:22;18.83;;;15.95;;
27383;SDS011;14851;51.166;4.760;2023-05-07T11:00:56;20.02;;;15.63;;
27383;SDS011;14851;51.166;4.760;2023-05-07T11:03:28;18.73;;;13.20;;
27383;SDS011;14851;51.166;4.760;2023-05-07T11:06:08;17.38;;;13.80;;
27383;SDS011;14851;51.166;4.760;2023-05-07T11:08:57;19.05;;;14.00;;
27383;SDS011;14851;51.166;4.760;2023-05-07T11:11:46;18.45;;;11.77;;
27383;SDS011;14851;51.166;4.760;2023-05-07T11:14:43;17.83;;;11.55;;
27383;SDS011;14851;51.166;4.760;2023-05-07T11:17:24;17.55;;;11.98;;
27383;SDS011;14851;51.166;4.760;2023-05-07T11:19:58;20.25;;;10.38;;
27383;SDS011;14851;51.166;4.760;2023-05-07T11:22:50;14.93;;;12.48;;
27383;SDS011;14851;51.166;4.760;2023-05-07T11:25:21;15.38;;;10.93;;
27383;SDS011;14851;51.166;4.760;2023-05-07T11:28:03;16.77;;;11.20;;
27383;SDS011;14851;51.166;4.760;2023-05-07T11:30:32;16.58;;;10.70;;
27383;SDS011;14851;51.166;4.760;2023-05-07T11:32:59;13.48;;;11.27;;
27383;SDS011;14851;51.166;4.760;2023-05-07T11:35:25;16.95;;;11.23;;
27383;SDS011;14851;51.166;4.760;2023-05-07T11:37:57;13.50;;;8.65;;
27383;SDS011;14851;51.166;4.760;2023-05-07T11:40:25;10.57;;;7.63;;
27383;SDS011;14851;51.166;4.760;2023-05-07T11:42:51;11.98;;;7.57;;
27383;SDS011;14851;51.166;4.760;2023-05-07T11:45:23;14.25;;;7.97;;
27383;SDS011;14851;51.166;4.760;2023-05-07T11:47:52;13.85;;;7.93;;
27383;SDS011;14851;51.166;4.760;2023-05-07T11:50:20;10.98;;;6.70;;
27383;SDS011;14851;51.166;4.760;2023-05-07T11:55:18;10.52;;;7.15;;
27383;SDS011;14851;51.166;4.760;2023-05-07T11:57:44;11.25;;;7.47;;
27383;SDS011;14851;51.166;4.760;2023-05-07T12:00:10;11.88;;;7.07;;
27383;SDS011;14851;51.166;4.760;2023-05-07T12:02:39;11.43;;;7.28;;
27383;SDS011;14851;51.166;4.760;2023-05-07T12:05:08;12.48;;;7.10;;
27383;SDS011;14851;51.166;4.760;2023-05-07T12:07:37;12.35;;;7.38;;
27383;SDS011;14851;51.166;4.760;2023-05-07T12:10:05;9.48;;;6.70;;
27383;SDS011;14851;51.166;4.760;2023-05-07T12:12:37;11.75;;;7.70;;
27383;SDS011;14851;51.166;4.760;2023-05-07T12:15:09;11.13;;;7.88;;
27383;SDS011;14851;51.166;4.760;2023-05-07T12:17:36;9.23;;;7.45;;
27383;SDS011;14851;51.166;4.760;2023-05-07T12:20:03;10.52;;;6.63;;
27383;SDS011;14851;51.166;4.760;2023-05-07T12:22:30;10.80;;;6.30;;
27383;SDS011;14851;51.166;4.760;2023-05-07T12:24:56;16.08;;;6.90;;
27383;SDS011;14851;51.166;4.760;2023-05-07T12:27:23;13.70;;;6.60;;
27383;SDS011;14851;51.166;4.760;2023-05-07T12:29:50;9.70;;;5.90;;
27383;SDS011;14851;51.166;4.760;2023-05-07T12:32:17;10.80;;;6.18;;
27383;SDS011;14851;51.166;4.760;2023-05-07T12:34:45;11.02;;;6.43;;
27383;SDS011;14851;51.166;4.760;2023-05-07T12:37:12;9.32;;;5.78;;
27383;SDS011;14851;51.166;4.760;2023-05-07T12:39:38;8.35;;;6.15;;
27383;SDS011;14851;51.166;4.760;2023-05-07T12:42:09;10.50;;;6.85;;
27383;SDS011;14851;51.166;4.760;2023-05-07T12:44:52;12.73;;;7.30;;
27383;SDS011;14851;51.166;4.760;2023-05-07T12:47:18;9.50;;;6.97;;
27383;SDS011;14851;51.166;4.760;2023-05-07T12:49:46;12.02;;;7.57;;
27383;SDS011;14851;51.166;4.760;2023-05-07T12:52:12;12.13;;;7.03;;
27383;SDS011;14851;51.166;4.760;2023-05-07T12:54:40;8.50;;;5.85;;
27383;SDS011;14851;51.166;4.760;2023-05-07T12:57:09;9.35;;;6.60;;
27383;SDS011;14851;51.166;4.760;2023-05-07T12:59:39;10.98;;;6.85;;
27383;SDS011;14851;51.166;4.760;2023-05-07T13:02:06;9.85;;;6.00;;
27383;SDS011;14851;51.166;4.760;2023-05-07T13:04:34;9.27;;;5.05;;
27383;SDS011;14851;51.166;4.760;2023-05-07T13:07:01;6.85;;;4.38;;
27383;SDS011;14851;51.166;4.760;2023-05-07T13:09:27;7.72;;;4.05;;
27383;SDS011;14851;51.166;4.760;2023-05-07T13:11:56;7.68;;;4.05;;
27383;SDS011;14851;51.166;4.760;2023-05-07T13:14:25;9.43;;;4.32;;
27383;SDS011;14851;51.166;4.760;2023-05-07T13:16:51;7.70;;;3.83;;
27383;SDS011;14851;51.166;4.760;2023-05-07T13:19:18;9.07;;;4.43;;
27383;SDS011;14851;51.166;4.760;2023-05-07T13:21:46;8.02;;;4.47;;
27383;SDS011;14851;51.166;4.760;2023-05-07T13:24:12;10.05;;;4.75;;
27383;SDS011;14851;51.166;4.760;2023-05-07T13:26:38;7.32;;;4.25;;
27383;SDS011;14851;51.166;4.760;2023-05-07T13:29:04;9.40;;;4.45;;
27383;SDS011;14851;51.166;4.760;2023-05-07T13:31:30;7.82;;;4.68;;
27383;SDS011;14851;51.166;4.760;2023-05-07T13:33:57;8.93;;;3.70;;
27383;SDS011;14851;51.166;4.760;2023-05-07T13:36:23;8.43;;;3.80;;
27383;SDS011;14851;51.166;4.760;2023-05-07T13:38:50;7.95;;;3.65;;
27383;SDS011;14851;51.166;4.760;2023-05-07T13:41:16;9.65;;;3.95;;
27383;SDS011;14851;51.166;4.760;2023-05-07T13:43:42;5.50;;;3.15;;
27383;SDS011;14851;51.166;4.760;2023-05-07T13:46:08;7.72;;;3.45;;
27383;SDS011;14851;51.166;4.760;2023-05-07T13:48:34;8.45;;;3.95;;
27383;SDS011;14851;51.166;4.760;2023-05-07T13:51:00;8.80;;;4.68;;
27383;SDS011;14851;51.166;4.760;2023-05-07T13:53:26;8.13;;;4.00;;
27383;SDS011;14851;51.166;4.760;2023-05-07T13:55:52;7.53;;;4.53;;
27383;SDS011;14851;51.166;4.760;2023-05-07T13:58:18;10.20;;;5.30;;
27383;SDS011;14851;51.166;4.760;2023-05-07T14:00:43;9.18;;;5.63;;
27383;SDS011;14851;51.166;4.760;2023-05-07T14:03:12;10.82;;;5.53;;
27383;SDS011;14851;51.166;4.760;2023-05-07T14:05:37;9.05;;;5.43;;
27383;SDS011;14851;51.166;4.760;2023-05-07T14:08:03;8.68;;;4.93;;
27383;SDS011;14851;51.166;4.760;2023-05-07T14:10:30;9.85;;;4.57;;
27383;SDS011;14851;51.166;4.760;2023-05-07T14:12:56;9.25;;;5.28;;
27383;SDS011;14851;51.166;4.760;2023-05-07T14:15:25;8.05;;;4.22;;
27383;SDS011;14851;51.166;4.760;2023-05-07T14:17:51;6.00;;;4.10;;
27383;SDS011;14851;51.166;4.760;2023-05-07T14:20:16;7.15;;;4.40;;
27383;SDS011;14851;51.166;4.760;2023-05-07T14:22:42;6.57;;;3.38;;
27383;SDS011;14851;51.166;4.760;2023-05-07T14:25:08;8.23;;;3.88;;
27383;SDS011;14851;51.166;4.760;2023-05-07T14:27:34;10.25;;;4.85;;
27383;SDS011;14851;51.166;4.760;2023-05-07T14:30:03;7.30;;;4.22;;
27383;SDS011;14851;51.166;4.760;2023-05-07T14:32:29;9.63;;;4.07;;
27383;SDS011;14851;51.166;4.760;2023-05-07T14:34:55;6.28;;;3.97;;
27383;SDS011;14851;51.166;4.760;2023-05-07T14:37:21;8.02;;;4.20;;
27383;SDS011;14851;51.166;4.760;2023-05-07T14:39:47;6.18;;;3.90;;
27383;SDS011;14851;51.166;4.760;2023-05-07T14:42:13;7.78;;;5.20;;
27383;SDS011;14851;51.166;4.760;2023-05-07T14:44:38;12.18;;;5.65;;
27383;SDS011;14851;51.166;4.760;2023-05-07T14:47:06;8.18;;;5.75;;
27383;SDS011;14851;51.166;4.760;2023-05-07T14:49:35;6.15;;;5.43;;
27383;SDS011;14851;51.166;4.760;2023-05-07T14:52:01;9.50;;;6.63;;